createdAt,value
2017-11-22T00:01:06.177Z,8.77
2017-11-22T00:03:33.658Z,8.97
2017-11-22T00:06:01.924Z,8.20
2017-11-22T00:08:29.410Z,8.67
2017-11-22T00:10:56.938Z,8.70
2017-11-22T00:13:24.422Z,9.37
2017-11-22T00:15:51.915Z,8.33
2017-11-22T00:18:19.431Z,8.67
2017-11-22T00:20:47.753Z,10.43
2017-11-22T00:23:15.253Z,9.83
2017-11-22T00:25:43.499Z,9.13
2017-11-22T00:28:11.009Z,11.47
2017-11-22T00:30:38.507Z,10.23
2017-11-22T00:33:06.005Z,11.63
2017-11-22T00:35:33.520Z,9.70
2017-11-22T00:38:01.013Z,11.03
2017-11-22T00:40:28.519Z,11.30
2017-11-22T00:42:56.008Z,11.50
2017-11-22T00:45:23.495Z,12.27
2017-11-22T00:47:51.774Z,12.13
2017-11-22T00:50:20.033Z,12.27
2017-11-22T00:52:47.543Z,14.47
2017-11-22T00:55:15.045Z,13.17
2017-11-22T00:57:42.562Z,13.60
2017-11-22T01:00:10.082Z,15.67
2017-11-22T01:02:38.358Z,14.17
2017-11-22T01:05:06.621Z,14.13
2017-11-22T01:07:34.152Z,14.83
2017-11-22T01:10:01.641Z,15.13
2017-11-22T01:12:29.158Z,16.67
2017-11-22T01:14:56.656Z,15.87
2017-11-22T01:17:24.154Z,15.60
2017-11-22T01:19:51.663Z,17.90
2017-11-22T01:22:19.166Z,17.10
2017-11-22T01:24:46.677Z,18.10
2017-11-22T01:27:14.192Z,15.77
2017-11-22T01:29:41.691Z,19.43
2017-11-22T01:32:09.202Z,19.80
2017-11-22T01:34:36.694Z,21.43
2017-11-22T01:37:04.216Z,19.33
2017-11-22T01:39:31.726Z,22.90
2017-11-22T01:41:59.223Z,20.70
2017-11-22T01:44:27.486Z,21.07
2017-11-22T01:46:55.750Z,21.70
2017-11-22T01:49:23.264Z,20.83
2017-11-22T01:51:50.757Z,21.90
2017-11-22T01:54:18.262Z,22.40
2017-11-22T01:56:45.769Z,24.00
2017-11-22T01:59:13.272Z,24.17
2017-11-22T02:01:40.791Z,22.50
2017-11-22T02:04:08.293Z,21.03
2017-11-22T02:06:35.790Z,21.43
2017-11-22T02:09:03.288Z,22.17
2017-11-22T02:11:31.557Z,23.17
2017-11-22T02:13:59.843Z,21.57
2017-11-22T02:16:28.103Z,22.47
2017-11-22T02:18:55.605Z,21.93
2017-11-22T02:21:23.109Z,23.57
2017-11-22T02:23:50.610Z,24.00
2017-11-22T02:26:18.183Z,21.57
2017-11-22T02:28:45.683Z,21.53
2017-11-22T02:31:13.815Z,24.70
2017-11-22T02:33:41.317Z,23.30
2017-11-22T02:36:08.809Z,21.07
2017-11-22T02:38:36.330Z,23.07
2017-11-22T02:41:03.830Z,21.67
2017-11-22T02:43:31.332Z,20.90
2017-11-22T02:45:58.844Z,22.07
2017-11-22T02:48:26.333Z,18.40
2017-11-22T02:50:53.851Z,21.20
2017-11-22T02:53:22.114Z,21.17
2017-11-22T02:55:50.369Z,18.53
2017-11-22T02:58:17.900Z,19.07
2017-11-22T03:00:45.399Z,23.17
2017-11-22T03:03:12.921Z,18.43
2017-11-22T03:05:40.428Z,17.10
2017-11-22T03:08:08.693Z,16.97
2017-11-22T03:10:36.198Z,15.13
2017-11-22T03:13:03.684Z,14.83
2017-11-22T03:15:31.216Z,15.57
2017-11-22T03:17:58.705Z,13.80
2017-11-22T03:20:26.198Z,14.73
2017-11-22T03:22:54.933Z,13.80
2017-11-22T03:25:22.429Z,14.30
2017-11-22T03:27:50.717Z,12.97
2017-11-22T03:30:19.032Z,13.33
2017-11-22T03:32:46.533Z,14.40
2017-11-22T03:35:14.056Z,15.53
2017-11-22T03:37:42.321Z,15.70
2017-11-22T03:40:09.838Z,14.83
2017-11-22T03:42:37.354Z,15.03
2017-11-22T03:45:04.920Z,14.93
2017-11-22T03:47:32.430Z,15.10
2017-11-22T03:50:06.424Z,16.37
2017-11-22T03:52:39.664Z,15.63
2017-11-22T03:55:07.161Z,16.20
2017-11-22T03:57:34.667Z,13.43
2017-11-22T04:00:02.170Z,14.67
2017-11-22T04:02:29.682Z,14.27
2017-11-22T04:04:57.183Z,13.80
2017-11-22T04:07:24.677Z,15.17
2017-11-22T04:09:52.951Z,13.90
2017-11-22T04:12:21.226Z,13.80
2017-11-22T04:14:49.515Z,13.07
2017-11-22T04:17:17.775Z,13.97
2017-11-22T04:19:50.983Z,13.67
2017-11-22T04:22:18.483Z,12.77
2017-11-22T04:24:45.965Z,11.93
2017-11-22T04:27:13.486Z,13.07
2017-11-22T04:29:41.661Z,10.97
2017-11-22T04:32:09.175Z,11.50
2017-11-22T04:34:37.440Z,12.00
2017-11-22T04:37:04.986Z,10.77
2017-11-22T04:39:32.506Z,11.57
2017-11-22T04:41:59.999Z,13.33
2017-11-22T04:44:27.510Z,12.37
2017-11-22T04:46:54.993Z,10.30
2017-11-22T04:49:22.498Z,12.27
2017-11-22T04:51:50.750Z,11.67
2017-11-22T04:54:18.275Z,12.23
2017-11-22T04:56:45.777Z,10.50
2017-11-22T04:59:13.288Z,9.80
2017-11-22T05:01:40.847Z,11.23
2017-11-22T05:04:08.343Z,11.80
2017-11-22T05:06:35.828Z,10.93
2017-11-22T05:09:04.101Z,11.07
2017-11-22T05:11:32.366Z,11.50
2017-11-22T05:13:59.870Z,10.47
2017-11-22T05:16:27.372Z,10.30
2017-11-22T05:18:54.872Z,9.70
2017-11-22T05:21:22.418Z,10.50
2017-11-22T05:23:50.678Z,9.73
2017-11-22T05:26:18.201Z,10.13
2017-11-22T05:28:45.703Z,10.60
2017-11-22T05:31:13.977Z,10.73
2017-11-22T05:33:41.472Z,8.80
2017-11-22T05:36:08.963Z,9.63
2017-11-22T05:38:36.486Z,10.10
2017-11-22T05:41:03.986Z,10.43
2017-11-22T05:43:31.477Z,12.10
2017-11-22T05:45:59.741Z,9.83
2017-11-22T05:48:27.998Z,11.23
2017-11-22T05:50:55.523Z,10.50
2017-11-22T05:53:23.017Z,10.30
2017-11-22T05:55:50.519Z,10.67
2017-11-22T05:58:18.018Z,10.07
2017-11-22T06:00:51.260Z,11.50
2017-11-22T06:03:18.774Z,12.63
2017-11-22T06:05:46.272Z,9.83
2017-11-22T06:08:14.545Z,11.67
2017-11-22T06:10:42.803Z,10.87
2017-11-22T06:13:10.295Z,9.67
2017-11-22T06:15:37.817Z,12.03
2017-11-22T06:18:05.342Z,10.57
2017-11-22T06:20:32.822Z,10.90
2017-11-22T06:23:00.321Z,10.60
2017-11-22T06:25:27.808Z,10.93
2017-11-22T06:27:55.322Z,10.13
2017-11-22T06:30:27.577Z,10.80
2017-11-22T06:32:55.080Z,10.97
2017-11-22T06:35:22.580Z,11.90
2017-11-22T06:37:50.077Z,11.33
2017-11-22T06:40:18.341Z,10.93
2017-11-22T06:42:49.058Z,11.67
2017-11-22T06:45:16.568Z,13.20
2017-11-22T06:47:44.058Z,12.23
2017-11-22T06:50:11.573Z,11.57
2017-11-22T06:52:39.089Z,11.40
2017-11-22T06:55:06.644Z,10.10
2017-11-22T06:57:34.157Z,12.40
2017-11-22T07:00:01.646Z,10.57
2017-11-22T07:02:34.891Z,12.67
2017-11-22T07:05:02.383Z,10.60
2017-11-22T07:07:29.896Z,12.17
2017-11-22T07:09:58.164Z,9.97
2017-11-22T07:12:26.435Z,10.57
2017-11-22T07:14:53.974Z,11.50
2017-11-22T07:17:27.110Z,9.37
2017-11-22T07:19:55.661Z,8.70
2017-11-22T07:22:23.158Z,11.57
2017-11-22T07:24:50.722Z,10.27
2017-11-22T07:27:18.226Z,10.70
2017-11-22T07:29:45.724Z,9.73
2017-11-22T07:32:13.454Z,10.87
2017-11-22T07:34:40.944Z,10.87
2017-11-22T07:37:14.960Z,10.67
2017-11-22T07:39:42.460Z,9.20
2017-11-22T07:42:09.998Z,9.83
2017-11-22T07:44:37.502Z,11.43
2017-11-22T07:47:10.649Z,11.23
2017-11-22T07:49:38.181Z,9.17
2017-11-22T07:52:11.218Z,10.60
2017-11-22T07:54:38.727Z,11.77
2017-11-22T07:57:06.226Z,10.50
2017-11-22T07:59:33.713Z,14.80
2017-11-22T08:02:01.210Z,12.77
2017-11-22T08:04:28.697Z,13.40
2017-11-22T08:06:56.196Z,12.90
2017-11-22T08:09:23.681Z,14.97
2017-11-22T08:11:51.217Z,14.23
2017-11-22T08:14:19.544Z,11.67
2017-11-22T08:16:47.034Z,14.53
2017-11-22T08:19:14.550Z,15.30
2017-11-22T08:21:42.059Z,12.03
2017-11-22T08:24:09.567Z,15.40
2017-11-22T08:26:37.089Z,15.73
2017-11-22T08:29:05.346Z,15.43
2017-11-22T08:31:32.846Z,15.07
2017-11-22T08:34:00.341Z,16.70
2017-11-22T08:36:27.854Z,14.13
2017-11-22T08:38:55.345Z,17.47
2017-11-22T08:41:25.769Z,15.73
2017-11-22T08:43:56.275Z,14.87
2017-11-22T08:46:23.781Z,17.53
2017-11-22T08:48:51.457Z,17.83
2017-11-22T08:51:19.761Z,15.53
2017-11-22T08:53:47.258Z,16.10
2017-11-22T08:56:20.749Z,13.83
2017-11-22T08:58:48.247Z,14.47
2017-11-22T09:01:15.829Z,16.20
2017-11-22T09:03:45.019Z,16.27
2017-11-22T09:06:18.930Z,16.37
2017-11-22T09:08:47.246Z,17.07
2017-11-22T09:11:14.770Z,13.47
2017-11-22T09:13:43.057Z,13.13
2017-11-22T09:16:10.551Z,12.77
2017-11-22T09:18:38.982Z,12.73
2017-11-22T09:21:10.053Z,12.13
2017-11-22T09:23:37.566Z,11.77
2017-11-22T09:26:05.063Z,11.80
2017-11-22T09:28:32.609Z,11.13
2017-11-22T09:31:06.656Z,10.10
2017-11-22T09:33:34.137Z,10.60
2017-11-22T09:36:01.639Z,9.80
2017-11-22T09:38:29.129Z,10.00
2017-11-22T09:40:56.609Z,9.33
2017-11-22T09:43:24.097Z,8.97
2017-11-22T09:45:52.400Z,10.50
2017-11-22T09:48:19.915Z,9.73
2017-11-22T09:50:47.428Z,8.70
2017-11-22T09:53:14.923Z,8.87
2017-11-22T09:55:42.410Z,9.10
2017-11-22T09:58:10.678Z,8.63
2017-11-22T10:00:38.180Z,10.37
2017-11-22T10:03:05.672Z,9.83
2017-11-22T10:05:33.159Z,9.90
2017-11-22T10:08:01.424Z,8.20
2017-11-22T10:10:28.909Z,8.77
2017-11-22T10:12:56.409Z,8.80
2017-11-22T10:15:23.894Z,10.17
2017-11-22T10:17:51.395Z,9.50
2017-11-22T10:20:19.785Z,9.40
2017-11-22T10:22:47.343Z,9.33
2017-11-22T10:25:19.770Z,10.07
2017-11-22T10:30:52.393Z,9.23
2017-11-22T10:33:29.801Z,8.77
2017-11-22T10:35:57.290Z,8.97
2017-11-22T10:38:24.799Z,9.73
2017-11-22T10:40:52.377Z,9.67
2017-11-22T10:43:19.911Z,9.30
2017-11-22T10:45:51.220Z,10.10
2017-11-22T10:48:20.244Z,9.73
2017-11-22T10:50:48.493Z,8.23
2017-11-22T10:53:16.014Z,9.97
2017-11-22T10:55:43.498Z,8.00
2017-11-22T10:58:11.030Z,7.30
2017-11-22T11:00:38.536Z,8.00
2017-11-22T11:03:06.023Z,8.60
2017-11-22T11:05:33.545Z,7.00
2017-11-22T11:08:01.065Z,10.33
2017-11-22T11:10:28.615Z,8.67
2017-11-22T11:12:56.125Z,8.73
2017-11-22T11:15:23.618Z,8.73
2017-11-22T11:17:51.126Z,8.90
2017-11-22T11:20:18.629Z,9.67
2017-11-22T11:22:46.109Z,7.13
2017-11-22T11:25:13.608Z,8.30
2017-11-22T11:27:41.126Z,8.27
2017-11-22T11:30:09.442Z,6.97
2017-11-22T11:32:36.942Z,8.50
2017-11-22T11:35:04.442Z,9.77
2017-11-22T11:37:31.950Z,8.10
2017-11-22T11:39:59.440Z,8.70
2017-11-22T11:42:26.935Z,9.40
2017-11-22T11:44:54.426Z,8.30
2017-11-22T11:47:22.677Z,9.17
2017-11-22T11:49:50.221Z,11.33
2017-11-22T11:52:17.742Z,10.20
2017-11-22T11:54:45.257Z,9.47
2017-11-22T11:57:12.733Z,8.77
2017-11-22T11:59:41.258Z,9.60
2017-11-22T12:02:08.807Z,8.60
2017-11-22T12:04:36.292Z,8.30
2017-11-22T12:07:04.612Z,9.30
2017-11-22T12:09:32.126Z,8.47
2017-11-22T12:11:59.615Z,8.40
2017-11-22T12:14:27.886Z,9.33
2017-11-22T12:16:55.374Z,8.23
2017-11-22T12:19:22.886Z,10.30
2017-11-22T12:21:55.962Z,8.47
2017-11-22T12:24:23.483Z,8.70
2017-11-22T12:26:50.970Z,10.30
2017-11-22T12:29:18.457Z,7.20
2017-11-22T12:31:45.983Z,8.20
2017-11-22T12:34:14.394Z,7.77
2017-11-22T12:36:41.894Z,8.07
2017-11-22T12:39:09.381Z,7.83
2017-11-22T12:41:36.869Z,7.73
2017-11-22T12:44:10.050Z,8.67
2017-11-22T12:46:37.543Z,7.80
2017-11-22T12:49:05.809Z,7.53
2017-11-22T12:51:34.060Z,7.67
2017-11-22T12:54:01.555Z,7.87
2017-11-22T12:56:29.822Z,8.47
2017-11-22T12:58:58.070Z,9.33
2017-11-22T13:01:25.597Z,7.37
2017-11-22T13:03:53.085Z,8.27
2017-11-22T13:06:20.575Z,9.10
2017-11-22T13:08:48.883Z,8.17
2017-11-22T13:11:34.117Z,8.53
2017-11-22T13:14:08.118Z,9.50
2017-11-22T13:16:35.605Z,8.83
2017-11-22T13:19:03.106Z,9.80
2017-11-22T13:21:30.600Z,10.07
2017-11-22T13:23:58.868Z,7.57
2017-11-22T13:26:26.365Z,8.63
2017-11-22T13:28:53.862Z,7.67
2017-11-22T13:31:21.472Z,8.30
2017-11-22T13:33:48.971Z,8.37
2017-11-22T13:36:16.508Z,9.30
2017-11-22T13:38:44.002Z,6.83
2017-11-22T13:41:11.539Z,9.53
2017-11-22T13:43:39.066Z,8.70
2017-11-22T13:46:06.573Z,7.10
2017-11-22T13:48:34.064Z,8.97
2017-11-22T13:51:02.380Z,8.13
2017-11-22T13:53:29.876Z,7.37
2017-11-22T13:55:57.394Z,8.03
2017-11-22T13:58:24.894Z,9.80
2017-11-22T14:00:52.386Z,10.70
2017-11-22T14:03:20.650Z,7.30
2017-11-22T14:05:48.902Z,7.10
2017-11-22T14:08:16.410Z,7.00
2017-11-22T14:10:43.891Z,8.67
2017-11-22T14:13:11.374Z,7.80
2017-11-22T14:15:38.866Z,8.70
2017-11-22T14:18:07.132Z,7.43
2017-11-22T14:20:35.417Z,9.67
2017-11-22T14:23:02.929Z,8.03
2017-11-22T14:25:31.201Z,8.30
2017-11-22T14:27:58.711Z,8.87
2017-11-22T14:30:26.213Z,8.73
2017-11-22T14:32:53.735Z,7.83
2017-11-22T14:35:22.036Z,9.17
2017-11-22T14:37:49.513Z,8.63
2017-11-22T14:40:17.048Z,8.00
2017-11-22T14:42:44.545Z,8.80
2017-11-22T14:45:12.044Z,8.33
2017-11-22T14:47:40.298Z,10.47
2017-11-22T14:50:08.554Z,8.03
2017-11-22T14:52:36.059Z,7.57
2017-11-22T14:55:03.541Z,8.13
2017-11-22T14:57:31.072Z,8.20
2017-11-22T14:59:58.593Z,8.30
2017-11-22T15:02:26.082Z,8.37
2017-11-22T15:04:54.340Z,8.27
2017-11-22T15:07:22.632Z,10.23
2017-11-22T15:09:50.158Z,8.63
2017-11-22T15:12:17.657Z,9.77
2017-11-22T15:14:45.146Z,8.80
2017-11-22T15:17:12.638Z,8.73
2017-11-22T15:19:40.145Z,11.97
2017-11-22T15:22:07.690Z,10.13
2017-11-22T15:24:35.197Z,8.47
2017-11-22T15:27:02.683Z,9.63
2017-11-22T15:29:30.958Z,7.97
2017-11-22T15:31:59.221Z,9.00
2017-11-22T15:34:26.807Z,9.70
2017-11-22T15:36:55.063Z,9.67
2017-11-22T15:39:22.637Z,9.27
2017-11-22T15:41:50.954Z,11.10
2017-11-22T15:44:18.457Z,11.77
2017-11-22T15:46:45.982Z,11.07
2017-11-22T15:49:13.487Z,13.83
2017-11-22T15:51:41.739Z,11.43
2017-11-22T15:54:09.239Z,10.40
2017-11-22T15:56:36.729Z,11.80
2017-11-22T15:59:04.299Z,12.83
2017-11-22T16:01:32.594Z,10.80
2017-11-22T16:04:00.100Z,11.83
2017-11-22T16:06:27.614Z,11.13
2017-11-22T16:08:55.101Z,12.47
2017-11-22T16:11:22.634Z,11.50
2017-11-22T16:13:50.123Z,11.70
2017-11-22T16:16:17.624Z,12.53
2017-11-22T16:18:45.132Z,11.43
2017-11-22T16:21:13.414Z,11.83
2017-11-22T16:23:40.937Z,15.20
2017-11-22T16:26:08.470Z,11.53
2017-11-22T16:28:36.011Z,11.77
2017-11-22T16:31:03.556Z,11.40
2017-11-22T16:33:31.049Z,12.17
2017-11-22T16:35:58.549Z,11.20
2017-11-22T16:38:26.825Z,13.33
2017-11-22T16:40:55.089Z,12.47
2017-11-22T16:43:22.625Z,10.53
2017-11-22T16:45:50.139Z,11.33
2017-11-22T16:48:17.656Z,12.27
2017-11-22T16:50:45.138Z,12.23
2017-11-22T16:53:13.411Z,12.33
2017-11-22T16:55:41.674Z,12.57
2017-11-22T16:58:09.175Z,30.57
2017-11-22T17:00:36.678Z,14.30
2017-11-22T17:03:04.209Z,11.13
2017-11-22T17:05:31.723Z,13.50
2017-11-22T17:07:59.348Z,19.83
2017-11-22T17:10:26.840Z,12.97
2017-11-22T17:12:55.133Z,11.03
2017-11-22T17:15:22.645Z,10.37
2017-11-22T17:17:50.157Z,12.30
2017-11-22T17:20:17.708Z,11.33
2017-11-22T17:22:45.221Z,11.70
2017-11-22T17:25:12.740Z,14.60
2017-11-22T17:27:40.230Z,13.80
2017-11-22T17:30:07.740Z,13.33
2017-11-22T17:32:36.063Z,12.67
2017-11-22T17:35:03.622Z,12.47
2017-11-22T17:37:31.108Z,12.03
2017-11-22T17:39:58.621Z,13.00
2017-11-22T17:42:26.155Z,12.63
2017-11-22T17:44:53.649Z,14.33
2017-11-22T17:47:21.154Z,13.93
2017-11-22T17:49:49.406Z,14.17
2017-11-22T17:52:16.890Z,13.67
2017-11-22T17:54:45.154Z,17.43
2017-11-22T17:57:12.689Z,14.97
2017-11-22T17:59:40.212Z,13.23
2017-11-22T18:02:07.738Z,14.13
2017-11-22T18:04:35.227Z,15.53
2017-11-22T18:07:02.774Z,17.83
2017-11-22T18:09:30.325Z,17.47
2017-11-22T18:11:58.610Z,19.43
2017-11-22T18:14:26.097Z,15.80
2017-11-22T18:16:53.602Z,15.93
2017-11-22T18:19:21.871Z,15.60
2017-11-22T18:21:49.383Z,14.47
2017-11-22T18:24:16.898Z,14.10
2017-11-22T18:26:45.172Z,12.30
2017-11-22T18:29:13.436Z,14.37
2017-11-22T18:31:41.721Z,12.53
2017-11-22T18:34:09.225Z,13.53
2017-11-22T18:36:36.743Z,13.60
2017-11-22T18:39:05.019Z,12.27
2017-11-22T18:41:33.275Z,13.07
2017-11-22T18:44:00.791Z,13.33
2017-11-22T18:46:28.308Z,14.60
2017-11-22T18:48:56.587Z,13.30
2017-11-22T18:51:24.848Z,16.77
2017-11-22T18:53:52.352Z,16.10
2017-11-22T18:56:19.896Z,15.10
2017-11-22T18:58:47.403Z,17.93
2017-11-22T19:01:14.921Z,18.03
2017-11-22T19:03:42.411Z,14.30
2017-11-22T19:06:09.961Z,16.13
2017-11-22T19:08:37.475Z,16.23
2017-11-22T19:11:05.749Z,17.90
2017-11-22T19:13:34.026Z,16.23
2017-11-22T19:16:02.729Z,15.83
2017-11-22T19:18:30.213Z,16.60
2017-11-22T19:20:57.725Z,14.03
2017-11-22T19:23:26.000Z,14.67
2017-11-22T19:25:54.287Z,14.47
2017-11-22T19:28:22.668Z,15.27
2017-11-22T19:30:51.012Z,16.67
2017-11-22T19:33:18.553Z,16.10
2017-11-22T19:35:46.086Z,14.00
2017-11-22T19:38:13.654Z,16.83
2017-11-22T19:40:41.192Z,18.40
2017-11-22T19:43:08.706Z,18.30
2017-11-22T19:45:36.205Z,14.57
2017-11-22T19:48:04.478Z,20.20
2017-11-22T19:50:32.097Z,19.17
2017-11-22T19:52:59.610Z,17.80
2017-11-22T19:55:27.139Z,15.33
2017-11-22T19:57:55.417Z,16.13
2017-11-22T20:00:23.691Z,15.17
2017-11-22T20:02:51.195Z,17.90
2017-11-22T20:05:18.694Z,17.23
2017-11-22T20:07:48.967Z,16.83
2017-11-22T20:10:16.481Z,19.17
2017-11-22T20:12:44.059Z,16.07
2017-11-22T20:15:11.758Z,22.23
2017-11-22T20:17:39.293Z,22.07
2017-11-22T20:20:06.780Z,18.27
2017-11-22T20:22:34.451Z,17.77
2017-11-22T20:25:02.010Z,16.27
2017-11-22T20:27:30.316Z,15.97
2017-11-22T20:29:57.816Z,16.77
2017-11-22T20:32:25.336Z,17.00
2017-11-22T20:34:53.009Z,15.07
2017-11-22T20:37:21.310Z,14.90
2017-11-22T20:39:48.888Z,15.97
2017-11-22T20:42:16.782Z,18.17
2017-11-22T20:44:44.449Z,22.50
2017-11-22T20:47:12.618Z,17.30
2017-11-22T20:49:40.422Z,16.80
2017-11-22T20:52:08.964Z,18.77
2017-11-22T20:54:36.470Z,17.03
2017-11-22T20:57:03.970Z,19.60
2017-11-22T20:59:31.554Z,18.13
2017-11-22T21:01:59.826Z,19.03
2017-11-22T21:04:27.393Z,16.77
2017-11-22T21:06:54.888Z,16.33
2017-11-22T21:09:22.389Z,14.80
2017-11-22T21:11:50.189Z,16.57
2017-11-22T21:14:17.755Z,18.77
2017-11-22T21:16:45.339Z,21.27
2017-11-22T21:19:12.860Z,18.37
2017-11-22T21:21:40.402Z,16.13
2017-11-22T21:24:11.018Z,17.00
2017-11-22T21:26:38.594Z,17.27
2017-11-22T21:29:06.324Z,15.57
2017-11-22T21:31:33.822Z,14.80
2017-11-22T21:34:01.334Z,15.93
2017-11-22T21:36:28.843Z,15.53
2017-11-22T21:38:56.430Z,17.33
2017-11-22T21:41:23.957Z,14.43
2017-11-22T21:43:51.554Z,14.00
2017-11-22T21:46:19.185Z,14.57
2017-11-22T21:48:46.739Z,17.30
2017-11-22T21:51:14.331Z,13.77
2017-11-22T21:53:47.842Z,13.63
2017-11-22T21:56:15.405Z,14.30
2017-11-22T21:58:49.213Z,16.97
2017-11-22T22:01:16.716Z,13.43
2017-11-22T22:03:44.225Z,14.90
2017-11-22T22:06:11.772Z,16.60
2017-11-22T22:08:39.287Z,17.30
2017-11-22T22:11:06.832Z,13.53
2017-11-22T22:13:34.349Z,15.30
2017-11-22T22:16:01.850Z,15.17
2017-11-22T22:18:29.355Z,15.53
2017-11-22T22:20:57.701Z,15.70
2017-11-22T22:23:25.219Z,15.70
2017-11-22T22:25:52.713Z,16.07
2017-11-22T22:28:20.313Z,16.40
2017-11-22T22:30:48.610Z,17.60
2017-11-22T22:33:16.121Z,18.37
2017-11-22T22:35:47.286Z,15.47
2017-11-22T22:38:15.617Z,16.47
2017-11-22T22:40:43.124Z,18.00
2017-11-22T22:43:12.383Z,15.93
2017-11-22T22:45:39.887Z,16.27
2017-11-22T22:48:10.066Z,14.37
2017-11-22T22:50:37.561Z,13.17
2017-11-22T22:53:05.819Z,15.03
2017-11-22T22:55:33.322Z,14.57
2017-11-22T22:58:00.826Z,14.50
2017-11-22T23:00:28.342Z,14.77
2017-11-22T23:02:55.856Z,15.20
2017-11-22T23:05:24.119Z,13.30
2017-11-22T23:07:51.625Z,13.40
2017-11-22T23:10:19.123Z,13.20
2017-11-22T23:12:46.646Z,14.03
2017-11-22T23:15:14.147Z,14.33
2017-11-22T23:17:41.685Z,15.60
2017-11-22T23:20:09.195Z,14.27
2017-11-22T23:22:37.559Z,15.20
2017-11-22T23:25:05.831Z,13.10
2017-11-22T23:27:33.323Z,15.87
2017-11-22T23:30:00.883Z,16.37
2017-11-22T23:32:28.428Z,17.23
2017-11-22T23:34:56.769Z,14.47
2017-11-22T23:37:24.300Z,18.33
2017-11-22T23:39:51.786Z,17.73
2017-11-22T23:42:19.285Z,14.80
2017-11-22T23:44:47.556Z,16.00
2017-11-22T23:47:15.821Z,16.80
2017-11-22T23:49:45.222Z,15.70
2017-11-22T23:52:13.488Z,15.33
2017-11-22T23:54:40.978Z,18.93
2017-11-22T23:57:08.486Z,14.63
2017-11-22T23:59:36.054Z,16.40
